Aeroporto :
LOGIN :

Iscrizione | Disclaimer

   EN    FR    IT 

 










Sommario :    VFR   VFR Marginale   IFR   IFR Intensivo   IFR Molto Intensivo
Visibilità : 
Base nubi : 
>= 8 km
>= 3000ft
5 / 8 km
1000 / 3000 ft
1500m / 5 km
500 / 1000 ft
800 / 1500m
200 / 500 ft
< 800m
< 200 ft
Simboli :   Temporali  Nebbia  Neve Forte  Precipitazioni Forti  Vento > 20 kt
SIGMETs :   Varie  Temporali  Ghiacco  Turbolenza  Onda orograficha  Ceneri Vulcaniche






- Altitudine del aeroporto : 257 ft
- Codice IATA : MAN


EGCC - Manchester

ULTIMO METAR :
  • 221550Z 22005KT 9999 FEW037 12/08 Q1020

METARs OBSOLETI :
  • 221520Z 22008KT 9999 FEW023 12/08 Q1020 NOSIG
  • 221450Z AUTO 22007KT 190V250 9999 FEW041 12/08 Q1021
  • 221420Z 21007KT 180V240 9999 FEW029 12/08 Q1021
  • 221350Z AUTO 21007KT 9999 BKN030 11/08 Q1021 NOSIG
  • 221320Z AUTO 21007KT 170V240 9999 NCD 11/08 Q1021 NOSIG

TAF TAF EGCC
Valido dal 22 a 12 ore il 23 a 18 ore UTC


221057Z 2212/2318 20006KT 9999 SCT030
PROB40
TEMPO 2305/2309 3000 BR BKN004
PROB30
TEMPO 2309/2311 BKN007
ATIS : +44 161 499 2324



MetMap, La meteo Aeronautica in un colpo d'occhio ! - Copyright ORBIFLY Dicembre 2007 - Disclaimer

ORBIFLY MET'MAP TEAM :

Programmazione e sviluppo : Alexandra Zaïnal
Concezione e sviluppo : Baudouin d'Aumeries
Co-Programmazione e sviluppo : Marc-Olivier Méhu
Supporto tecnico e logistico : Manuel Goepfert
Aiuto per la traduzione : Arnaldo La Scala

Contatto : metmap@orbifly.com




FONTI E CREDITI :

   NOAA